createdAt,value
2022-07-30T07:07:41.158Z,13800.00
2022-07-30T07:08:31.671Z,13792.00
2022-07-30T07:09:30.651Z,13568.00
2022-07-30T07:10:30.672Z,13232.00
2022-07-30T07:11:30.611Z,12868.00
2022-07-30T07:12:30.618Z,12752.00
2022-07-30T07:13:30.589Z,13036.00
2022-07-30T07:14:30.596Z,13244.00
2022-07-30T07:15:36.121Z,13120.00
2022-07-30T07:16:31.644Z,12628.00
2022-07-30T07:17:30.548Z,12248.00
2022-07-30T07:18:30.538Z,11844.00
2022-07-30T07:20:01.529Z,11588.00
2022-07-30T07:20:31.899Z,11152.00
2022-07-30T07:21:30.519Z,10688.00
2022-07-30T07:22:30.474Z,10348.00
2022-07-30T07:23:41.864Z,10572.00
2022-07-30T07:24:31.462Z,10688.00
2022-07-30T07:25:30.442Z,10560.00
2022-07-30T07:26:30.462Z,9992.00
2022-07-30T07:27:30.430Z,9480.00
2022-07-30T07:28:33.365Z,9144.00
2022-07-30T07:29:30.439Z,9044.00
2022-07-30T07:30:30.459Z,9384.00
2022-07-30T07:32:07.000Z,9516.00
2022-07-30T07:32:31.373Z,9680.00
2022-07-30T07:33:30.360Z,9764.00
2022-07-30T07:34:30.351Z,9700.00
2022-07-30T07:35:30.348Z,9656.00
2022-07-30T07:36:30.337Z,9672.00
2022-07-30T07:37:30.327Z,9688.00
2022-07-30T07:38:30.317Z,9784.00
2022-07-30T07:39:30.312Z,9796.00
2022-07-30T07:40:30.306Z,9692.00
2022-07-30T07:41:30.276Z,9472.00
2022-07-30T07:42:31.266Z,9216.00
2022-07-30T07:43:30.273Z,9040.00
2022-07-30T07:44:30.247Z,8848.00
2022-07-30T07:45:30.252Z,8668.00
2022-07-30T07:46:33.939Z,8636.00
2022-07-30T07:47:30.222Z,8780.00
2022-07-30T07:48:30.217Z,8948.00
2022-07-30T07:49:30.206Z,8948.00
2022-07-30T07:50:30.219Z,8896.00
2022-07-30T07:51:46.760Z,8860.00
2022-07-30T07:52:31.164Z,8828.00
2022-07-30T07:53:30.157Z,8832.00
2022-07-30T07:54:30.149Z,8964.00
2022-07-30T07:55:31.671Z,9184.00
2022-07-30T07:56:30.138Z,9460.00
2022-07-30T07:57:30.112Z,9688.00
2022-07-30T07:58:31.057Z,9948.00
2022-07-30T07:59:39.583Z,10104.00
2022-07-30T08:00:31.085Z,10436.00
2022-07-30T08:01:30.144Z,10608.00
2022-07-30T08:02:30.143Z,10812.00
2022-07-30T08:03:30.060Z,11120.00
2022-07-30T08:04:30.049Z,11492.00
2022-07-30T08:06:01.023Z,11960.00
2022-07-30T08:06:31.038Z,12300.00
2022-07-30T08:07:30.036Z,12924.00
2022-07-30T08:08:30.007Z,13364.00
2022-07-30T08:09:40.888Z,13728.00
2022-07-30T08:10:30.977Z,14020.00
2022-07-30T08:11:29.986Z,14240.00
2022-07-30T08:12:29.964Z,14028.00
2022-07-30T08:13:51.720Z,14032.00
2022-07-30T08:14:30.937Z,13972.00
2022-07-30T08:15:29.925Z,13588.00
2022-07-30T08:16:29.976Z,13032.00
2022-07-30T08:17:29.915Z,12328.00
2022-07-30T08:18:29.895Z,11668.00
2022-07-30T08:19:29.896Z,10968.00
2022-07-30T08:20:33.477Z,10388.00
2022-07-30T08:21:29.872Z,9908.00
2022-07-30T08:22:29.867Z,9372.00
2022-07-30T08:23:29.840Z,8960.00
2022-07-30T08:24:29.852Z,8496.00
2022-07-30T08:25:29.838Z,8196.00
2022-07-30T08:26:29.813Z,8008.00
2022-07-30T08:27:29.801Z,7788.00
2022-07-30T08:28:35.490Z,7692.00
2022-07-30T08:29:30.789Z,7652.00
2022-07-30T08:30:29.789Z,7560.00
2022-07-30T08:31:29.770Z,7444.00
2022-07-30T08:32:29.757Z,7264.00
2022-07-30T08:33:29.746Z,7228.00
2022-07-30T08:34:29.736Z,7168.00
2022-07-30T08:35:29.722Z,7080.00
2022-07-30T08:36:29.710Z,7012.00
2022-07-30T08:37:29.715Z,7004.00
2022-07-30T08:38:29.693Z,7052.00
2022-07-30T08:39:29.692Z,7032.00
2022-07-30T08:40:29.663Z,7020.00
2022-07-30T08:41:29.654Z,7012.00
2022-07-30T08:42:29.653Z,7048.00
2022-07-30T08:43:29.648Z,6980.00
2022-07-30T08:44:29.653Z,6816.00
2022-07-30T08:45:34.779Z,6840.00
2022-07-30T08:46:30.600Z,6852.00
2022-07-30T08:47:29.599Z,6956.00
2022-07-30T08:48:29.590Z,7016.00
2022-07-30T08:49:29.579Z,7108.00
2022-07-30T08:50:29.577Z,7052.00
2022-07-30T08:51:29.549Z,7040.00
2022-07-30T08:52:29.537Z,6920.00
2022-07-30T08:53:29.530Z,6872.00
2022-07-30T08:54:29.522Z,6772.00
2022-07-30T08:55:29.534Z,6724.00
2022-07-30T08:56:29.506Z,6804.00
2022-07-30T08:57:29.493Z,6768.00
2022-07-30T08:58:29.482Z,6800.00
2022-07-30T08:59:59.093Z,6896.00
2022-07-30T09:00:30.555Z,6976.00
2022-07-30T09:01:29.463Z,7072.00
2022-07-30T09:02:29.732Z,7132.00
2022-07-30T09:03:29.428Z,7164.00
2022-07-30T09:04:29.482Z,7180.00
2022-07-30T09:05:29.417Z,7180.00
2022-07-30T09:06:29.391Z,7140.00
2022-07-30T09:07:29.429Z,7144.00
2022-07-30T09:08:29.377Z,7244.00
2022-07-30T09:09:29.369Z,7280.00
2022-07-30T09:10:29.352Z,7128.00
2022-07-30T09:11:29.362Z,7072.00
2022-07-30T09:12:29.387Z,7020.00
2022-07-30T09:13:29.319Z,6956.00
2022-07-30T09:14:30.049Z,7044.00
2022-07-30T09:15:29.311Z,7128.00
2022-07-30T09:16:29.286Z,7200.00
2022-07-30T09:17:32.680Z,7376.00
2022-07-30T09:18:29.302Z,7564.00
2022-07-30T09:19:29.255Z,7636.00
2022-07-30T09:20:29.250Z,7584.00
2022-07-30T09:21:29.329Z,7440.00
2022-07-30T09:22:29.241Z,7392.00
2022-07-30T09:23:29.218Z,7356.00
2022-07-30T09:24:29.240Z,7312.00
2022-07-30T09:25:29.193Z,7180.00
2022-07-30T09:26:30.256Z,7132.00
2022-07-30T09:27:29.201Z,7056.00
2022-07-30T09:28:29.179Z,7212.00
2022-07-30T09:29:29.150Z,7272.00
2022-07-30T09:30:32.290Z,7272.00
2022-07-30T09:32:29.129Z,7088.00
2022-07-30T09:33:29.208Z,6748.00
2022-07-30T09:34:29.121Z,6400.00
2022-07-30T09:35:29.084Z,6464.00
2022-07-30T09:36:29.090Z,6928.00
2022-07-30T09:37:29.111Z,7208.00
2022-07-30T09:38:29.098Z,7256.00
2022-07-30T09:39:29.066Z,7328.00
2022-07-30T09:40:32.097Z,7204.00
2022-07-30T09:41:38.778Z,7148.00
2022-07-30T09:42:30.030Z,7032.00
2022-07-30T09:43:29.009Z,6928.00
2022-07-30T09:44:28.993Z,6780.00
2022-07-30T09:45:34.721Z,6744.00
2022-07-30T09:46:30.042Z,6796.00
2022-07-30T09:47:28.971Z,6800.00
2022-07-30T09:48:28.948Z,6780.00
2022-07-30T09:49:29.071Z,6816.00
2022-07-30T09:50:30.058Z,6776.00
2022-07-30T09:51:56.461Z,6664.00
2022-07-30T09:52:29.928Z,6548.00
2022-07-30T09:53:29.010Z,6456.00
2022-07-30T09:54:28.893Z,6376.00
2022-07-30T09:55:28.883Z,6336.00
2022-07-30T09:56:30.115Z,6272.00
2022-07-30T09:57:28.890Z,6220.00
2022-07-30T09:58:28.855Z,6128.00
2022-07-30T09:59:35.048Z,6140.00
2022-07-30T10:00:29.871Z,6240.00
2022-07-30T10:01:49.689Z,6296.00
2022-07-30T10:02:32.310Z,6404.00
2022-07-30T10:03:34.097Z,6500.00
2022-07-30T10:04:29.796Z,6516.00
2022-07-30T10:05:28.777Z,6560.00
2022-07-30T10:06:28.771Z,6528.00
2022-07-30T10:07:28.762Z,6432.00
2022-07-30T10:08:29.796Z,6368.00
2022-07-30T10:09:28.736Z,6308.00
2022-07-30T10:10:28.731Z,6272.00
2022-07-30T10:11:31.312Z,6140.00
2022-07-30T10:12:28.715Z,5928.00
2022-07-30T10:13:29.564Z,5916.00
2022-07-30T10:14:30.750Z,6052.00
2022-07-30T10:15:28.676Z,6176.00
2022-07-30T10:16:28.747Z,6284.00
2022-07-30T10:17:28.689Z,6436.00
2022-07-30T10:18:28.690Z,6460.00
2022-07-30T10:19:40.346Z,6380.00
2022-07-30T10:20:29.642Z,6272.00
2022-07-30T10:21:28.625Z,6156.00
2022-07-30T10:22:28.621Z,6064.00
2022-07-30T10:23:28.611Z,6020.00
2022-07-30T10:24:28.602Z,5988.00
2022-07-30T10:25:28.581Z,5956.00
2022-07-30T10:26:28.562Z,5904.00
2022-07-30T10:27:28.562Z,5852.00
2022-07-30T10:28:28.540Z,5816.00
2022-07-30T10:29:34.038Z,5788.00
2022-07-30T10:30:29.561Z,5760.00
2022-07-30T10:31:48.541Z,5728.00
2022-07-30T10:32:30.938Z,5700.00
2022-07-30T10:33:36.600Z,5676.00
2022-07-30T10:34:34.026Z,5648.00
2022-07-30T10:35:34.769Z,5628.00
2022-07-30T10:36:29.493Z,5616.00
2022-07-30T10:37:28.443Z,5612.00
2022-07-30T10:38:28.443Z,5604.00
2022-07-30T10:39:28.440Z,5596.00
2022-07-30T10:40:30.948Z,5592.00
2022-07-30T10:41:42.512Z,5592.00
2022-07-30T10:42:29.419Z,5604.00
2022-07-30T10:43:31.791Z,5632.00
2022-07-30T10:44:28.387Z,5668.00
2022-07-30T10:45:28.364Z,5716.00
2022-07-30T10:46:28.363Z,5772.00
2022-07-30T10:47:33.366Z,5820.00
2022-07-30T10:48:29.352Z,5860.00
2022-07-30T10:49:28.330Z,5892.00
2022-07-30T10:50:29.325Z,5912.00
2022-07-30T10:51:34.711Z,5928.00
2022-07-30T10:52:29.296Z,5952.00
2022-07-30T10:53:28.606Z,6000.00
2022-07-30T10:54:28.281Z,6048.00
2022-07-30T10:55:36.911Z,6080.00
2022-07-30T10:56:29.260Z,6100.00
2022-07-30T10:57:32.209Z,6108.00
2022-07-30T10:58:28.240Z,6100.00
2022-07-30T10:59:29.131Z,6088.00
2022-07-30T11:00:28.230Z,6084.00
2022-07-30T11:01:30.550Z,6108.00
2022-07-30T11:02:28.197Z,6156.00
2022-07-30T11:03:40.617Z,6164.00
2022-07-30T11:04:29.579Z,6172.00
2022-07-30T11:05:43.791Z,6244.00
2022-07-30T11:06:29.190Z,6244.00
2022-07-30T11:07:28.140Z,6244.00
2022-07-30T11:08:32.596Z,6200.00
2022-07-30T11:09:29.122Z,6116.00
2022-07-30T11:10:28.125Z,6060.00
2022-07-30T11:12:02.058Z,6000.00
2022-07-30T11:12:29.104Z,5996.00
2022-07-30T11:13:28.076Z,6048.00
2022-07-30T11:14:28.072Z,6104.00
2022-07-30T11:15:28.139Z,5984.00
2022-07-30T11:16:29.060Z,6048.00
2022-07-30T11:17:28.039Z,6076.00
2022-07-30T11:18:28.618Z,6248.00
2022-07-30T11:19:55.753Z,6388.00
2022-07-30T11:20:28.997Z,6580.00
2022-07-30T11:21:27.998Z,7160.00
2022-07-30T11:22:27.978Z,8252.00
2022-07-30T11:23:27.965Z,9224.00
2022-07-30T11:24:27.973Z,9332.00
2022-07-30T11:25:50.355Z,9436.00
2022-07-30T11:26:28.948Z,9156.00
2022-07-30T11:27:27.927Z,8764.00
2022-07-30T11:28:27.921Z,8540.00
2022-07-30T11:29:33.146Z,7832.00
2022-07-30T11:30:30.590Z,7564.00
2022-07-30T11:31:30.700Z,7504.00
2022-07-30T11:32:29.677Z,7684.00
2022-07-30T11:33:33.087Z,8552.00
2022-07-30T11:34:31.486Z,9336.00
2022-07-30T11:35:34.614Z,9844.00
2022-07-30T11:36:28.848Z,9548.00
2022-07-30T11:37:32.200Z,9376.00
2022-07-30T11:38:27.978Z,9088.00
2022-07-30T11:39:29.799Z,8072.00
2022-07-30T11:40:28.987Z,7580.00
2022-07-30T11:41:27.804Z,7228.00
2022-07-30T11:42:27.808Z,7576.00
2022-07-30T11:43:36.295Z,7988.00
2022-07-30T11:44:28.754Z,8156.00
2022-07-30T11:45:28.178Z,8028.00
2022-07-30T11:46:29.302Z,8288.00
2022-07-30T11:47:27.736Z,8636.00
2022-07-30T11:48:27.847Z,8072.00
2022-07-30T11:49:27.789Z,7240.00
2022-07-30T11:50:27.691Z,6620.00
2022-07-30T11:51:27.687Z,6576.00
2022-07-30T11:52:27.689Z,6592.00
2022-07-30T11:53:27.668Z,6440.00
2022-07-30T11:54:27.667Z,6508.00
2022-07-30T11:55:27.654Z,6256.00
2022-07-30T11:56:27.635Z,6200.00
2022-07-30T11:57:27.625Z,6548.00
2022-07-30T11:58:28.608Z,7348.00
2022-07-30T11:59:27.614Z,8300.00
2022-07-30T12:00:27.603Z,8796.00
2022-07-30T12:01:27.586Z,7860.00
2022-07-30T12:02:27.588Z,7464.00
2022-07-30T12:03:29.949Z,7228.00
2022-07-30T12:04:27.555Z,7220.00
2022-07-30T12:05:27.543Z,7040.00
2022-07-30T12:06:27.564Z,6624.00
2022-07-30T12:07:27.516Z,6628.00
2022-07-30T12:08:35.230Z,6872.00
2022-07-30T12:09:28.504Z,7068.00
2022-07-30T12:10:27.788Z,7452.00
2022-07-30T12:11:27.483Z,7348.00
2022-07-30T12:12:27.484Z,7568.00
2022-07-30T12:13:45.061Z,7348.00
2022-07-30T12:14:28.447Z,7356.00
2022-07-30T12:15:27.436Z,7612.00
2022-07-30T12:16:27.428Z,7504.00
2022-07-30T12:17:27.418Z,7652.00
2022-07-30T12:18:27.455Z,7964.00
2022-07-30T12:19:27.402Z,8712.00
2022-07-30T12:20:27.389Z,9600.00
2022-07-30T12:21:27.378Z,10492.00
2022-07-30T12:22:27.373Z,10440.00
2022-07-30T12:23:27.365Z,10280.00
2022-07-30T12:24:27.378Z,10248.00
2022-07-30T12:25:27.340Z,9632.00
2022-07-30T12:26:27.414Z,8992.00
2022-07-30T12:27:27.319Z,8484.00
2022-07-30T12:28:27.310Z,8300.00
2022-07-30T12:29:27.296Z,8268.00
2022-07-30T12:30:27.315Z,7716.00
2022-07-30T12:31:27.282Z,7376.00
2022-07-30T12:32:27.263Z,7012.00
2022-07-30T12:33:27.254Z,7424.00
2022-07-30T12:34:27.254Z,7928.00
2022-07-30T12:35:27.234Z,8604.00
2022-07-30T12:36:27.230Z,8516.00
2022-07-30T12:37:27.214Z,8048.00
2022-07-30T12:38:27.212Z,8208.00
2022-07-30T12:39:27.216Z,7536.00
2022-07-30T12:40:27.184Z,7268.00
2022-07-30T12:41:27.175Z,7324.00
2022-07-30T12:42:27.179Z,7672.00
2022-07-30T12:43:27.156Z,7492.00
2022-07-30T12:44:27.155Z,7436.00
2022-07-30T12:45:27.140Z,7436.00
2022-07-30T12:46:27.123Z,7332.00
2022-07-30T12:47:27.119Z,7244.00
2022-07-30T12:48:27.112Z,7128.00
2022-07-30T12:49:27.125Z,7300.00
2022-07-30T12:50:28.092Z,7332.00
2022-07-30T12:51:27.072Z,7504.00
2022-07-30T12:52:28.527Z,8108.00
2022-07-30T12:53:27.058Z,8652.00
2022-07-30T12:54:27.058Z,8968.00
2022-07-30T12:55:27.056Z,9348.00
2022-07-30T12:56:34.633Z,10116.00
2022-07-30T12:57:34.611Z,10764.00
2022-07-30T12:58:34.647Z,10356.00
2022-07-30T12:59:27.028Z,9520.00
2022-07-30T13:00:26.990Z,8740.00
2022-07-30T13:01:27.159Z,7920.00
2022-07-30T13:02:26.956Z,7620.00
2022-07-30T13:03:26.963Z,7184.00
2022-07-30T13:04:26.966Z,6808.00
2022-07-30T13:05:26.924Z,6616.00
2022-07-30T13:06:26.944Z,7164.00
2022-07-30T13:07:26.913Z,7356.00
2022-07-30T13:08:26.896Z,7472.00
2022-07-30T13:09:26.901Z,7572.00
2022-07-30T13:10:30.696Z,7796.00
2022-07-30T13:11:26.884Z,7932.00
2022-07-30T13:12:26.872Z,8140.00
2022-07-30T13:13:26.912Z,8624.00
2022-07-30T13:14:26.940Z,9232.00
2022-07-30T13:15:26.883Z,9700.00
2022-07-30T13:16:26.825Z,9824.00
2022-07-30T13:17:26.825Z,9828.00
2022-07-30T13:18:26.796Z,9856.00
2022-07-30T13:19:26.807Z,9736.00
2022-07-30T13:20:26.801Z,9436.00
2022-07-30T13:21:26.840Z,9648.00
2022-07-30T13:22:26.768Z,9360.00
2022-07-30T13:23:26.790Z,9528.00
2022-07-30T13:24:26.731Z,10156.00
2022-07-30T13:25:26.739Z,11320.00
2022-07-30T13:26:27.747Z,12392.00
2022-07-30T13:27:26.732Z,13512.00
2022-07-30T13:28:26.750Z,13432.00
2022-07-30T13:29:26.720Z,12480.00
2022-07-30T13:30:26.715Z,11868.00
2022-07-30T13:31:26.751Z,11300.00
2022-07-30T13:32:26.669Z,10912.00
2022-07-30T13:33:26.681Z,10460.00
2022-07-30T13:34:26.644Z,11276.00
2022-07-30T13:35:26.636Z,12008.00
2022-07-30T13:36:26.620Z,12300.00
2022-07-30T13:37:37.580Z,12752.00
2022-07-30T13:38:27.648Z,12780.00
2022-07-30T13:39:26.599Z,13048.00
2022-07-30T13:40:26.596Z,12996.00
2022-07-30T13:41:26.578Z,12560.00
2022-07-30T13:42:26.567Z,12080.00
2022-07-30T13:43:26.543Z,11576.00
2022-07-30T13:44:26.561Z,11780.00
2022-07-30T13:45:26.523Z,11628.00
2022-07-30T13:46:26.544Z,11396.00
2022-07-30T13:47:26.499Z,10720.00
2022-07-30T13:48:26.495Z,10492.00
2022-07-30T13:49:26.552Z,11168.00
2022-07-30T13:50:26.469Z,11452.00
2022-07-30T13:51:26.501Z,11232.00
2022-07-30T13:52:26.443Z,11036.00
2022-07-30T13:53:26.449Z,10844.00
2022-07-30T13:54:26.491Z,10992.00
2022-07-30T13:55:26.414Z,11448.00
2022-07-30T13:56:26.434Z,11264.00
2022-07-30T13:57:26.391Z,11228.00
2022-07-30T13:58:26.394Z,10660.00
2022-07-30T13:59:26.417Z,10136.00
2022-07-30T14:00:26.363Z,9552.00
2022-07-30T14:01:26.445Z,8992.00
2022-07-30T14:02:26.376Z,8472.00
2022-07-30T14:03:26.720Z,8132.00
2022-07-30T14:04:26.423Z,7776.00
2022-07-30T14:05:26.428Z,7176.00
2022-07-30T14:06:26.323Z,7224.00
2022-07-30T14:07:26.287Z,7196.00
2022-07-30T14:08:26.292Z,7048.00
2022-07-30T14:09:26.276Z,7172.00
2022-07-30T14:10:26.257Z,7200.00
2022-07-30T14:11:26.249Z,7312.00
2022-07-30T14:12:26.238Z,7472.00
2022-07-30T14:13:26.236Z,7588.00
2022-07-30T14:14:26.224Z,7760.00
2022-07-30T14:15:26.215Z,7968.00
2022-07-30T14:16:44.679Z,8216.00
2022-07-30T14:17:27.186Z,8504.00
2022-07-30T14:18:26.176Z,8700.00
2022-07-30T14:19:26.175Z,8888.00
2022-07-30T14:20:29.015Z,8956.00
2022-07-30T14:21:26.162Z,8864.00
2022-07-30T14:22:26.147Z,9208.00
2022-07-30T14:23:26.133Z,9540.00
2022-07-30T14:24:26.117Z,9948.00
2022-07-30T14:25:26.131Z,10588.00
2022-07-30T14:26:30.239Z,11512.00
2022-07-30T14:27:27.095Z,11932.00
2022-07-30T14:28:26.091Z,11876.00
2022-07-30T14:29:26.158Z,11808.00
2022-07-30T14:30:26.058Z,11848.00
2022-07-30T14:31:26.063Z,11824.00
2022-07-30T14:32:28.732Z,11588.00
2022-07-30T14:33:27.031Z,11540.00
2022-07-30T14:34:26.028Z,11256.00
2022-07-30T14:35:26.011Z,10896.00
2022-07-30T14:36:27.451Z,10332.00
2022-07-30T14:37:29.609Z,9648.00
2022-07-30T14:38:27.578Z,9112.00
2022-07-30T14:40:39.326Z,8684.00
2022-07-30T14:41:36.808Z,8340.00
2022-07-30T14:42:36.831Z,7936.00
2022-07-30T14:43:36.670Z,7556.00
2022-07-30T14:44:39.829Z,7208.00
2022-07-30T14:45:38.530Z,6716.00
2022-07-30T14:46:51.965Z,6208.00
2022-07-30T14:47:38.123Z,5848.00
2022-07-30T14:48:37.913Z,5380.00
2022-07-30T14:49:37.369Z,5160.00
2022-07-30T14:50:51.471Z,5116.00
2022-07-30T14:51:37.615Z,5104.00
2022-07-30T14:52:39.124Z,5044.00
2022-07-30T14:53:37.535Z,4964.00
2022-07-30T14:54:36.870Z,4900.00
2022-07-30T14:55:36.600Z,4912.00
2022-07-30T14:56:37.404Z,4972.00
2022-07-30T14:57:40.780Z,4992.00
2022-07-30T14:58:38.371Z,5048.00
2022-07-30T14:59:38.860Z,5096.00
2022-07-30T15:00:48.617Z,5144.00
2022-07-30T15:01:40.932Z,5440.00
2022-07-30T15:02:45.534Z,5432.00
2022-07-30T15:32:14.161Z,7756.00
2022-07-30T15:33:14.181Z,8160.00
2022-07-30T15:34:14.149Z,8524.00
2022-07-30T15:35:14.414Z,8684.00
2022-07-30T15:36:14.111Z,8380.00
2022-07-30T15:37:14.120Z,8096.00
2022-07-30T15:38:14.113Z,7980.00
2022-07-30T15:39:14.072Z,7888.00
2022-07-30T15:40:14.070Z,7852.00
2022-07-30T15:41:14.114Z,7484.00
2022-07-30T15:42:14.056Z,7224.00
2022-07-30T15:43:14.025Z,6876.00
2022-07-30T15:44:14.055Z,6168.00
2022-07-30T15:45:17.630Z,5756.00
2022-07-30T15:46:13.997Z,5492.00
2022-07-30T15:47:14.410Z,5140.00
2022-07-30T15:48:14.015Z,4856.00
2022-07-30T15:49:15.094Z,4896.00
2022-07-30T15:50:13.965Z,5096.00
2022-07-30T15:51:13.950Z,5152.00
2022-07-30T15:52:13.979Z,5012.00
2022-07-30T15:53:17.557Z,5140.00
2022-07-30T15:54:13.922Z,5556.00
2022-07-30T15:55:13.913Z,5472.00
2022-07-30T15:56:13.898Z,5448.00
2022-07-30T15:57:13.891Z,5388.00
2022-07-30T15:58:13.891Z,5220.00
2022-07-30T15:59:13.864Z,4988.00
2022-07-30T16:00:13.860Z,4704.00
2022-07-30T16:01:13.907Z,4620.00
2022-07-30T16:02:13.843Z,4632.00
2022-07-30T16:03:13.830Z,4720.00
2022-07-30T16:04:19.697Z,4748.00
2022-07-30T16:05:14.809Z,5100.00
2022-07-30T16:06:13.826Z,5020.00
2022-07-30T16:07:13.788Z,5240.00
2022-07-30T16:08:13.779Z,5604.00
2022-07-30T16:09:13.786Z,5884.00
2022-07-30T16:10:13.752Z,6220.00
2022-07-30T16:11:13.741Z,6440.00
2022-07-30T16:12:13.743Z,5880.00
2022-07-30T16:13:13.719Z,6024.00
2022-07-30T16:14:13.717Z,6140.00
2022-07-30T16:15:13.704Z,6208.00
2022-07-30T16:16:13.690Z,6332.00
2022-07-30T16:17:14.127Z,20064.00
2022-07-30T16:18:13.667Z,19712.00
2022-07-30T16:19:13.657Z,18912.00
2022-07-30T16:20:13.645Z,17888.00
2022-07-30T16:21:13.646Z,18368.00
2022-07-30T16:22:14.940Z,17248.00
2022-07-30T16:23:18.242Z,17344.00
2022-07-30T16:24:14.615Z,16864.00
2022-07-30T16:25:13.661Z,16320.00
2022-07-30T16:26:13.590Z,16256.00
2022-07-30T16:27:13.586Z,13912.00
2022-07-30T16:28:13.605Z,13672.00
2022-07-30T16:29:14.139Z,15264.00
2022-07-30T16:30:13.713Z,12212.00
2022-07-30T16:31:13.536Z,9040.00
2022-07-30T16:32:13.528Z,7176.00
2022-07-30T16:33:13.555Z,6068.00
2022-07-30T16:34:13.500Z,6220.00
2022-07-30T16:35:13.662Z,11916.00
2022-07-30T16:36:13.495Z,10248.00
2022-07-30T16:37:13.476Z,13484.00
2022-07-30T16:38:13.467Z,12312.00
2022-07-30T16:39:13.471Z,6352.00
2022-07-30T16:40:13.440Z,12720.00
2022-07-30T16:41:13.841Z,12756.00
2022-07-30T16:42:13.425Z,6000.00
2022-07-30T16:43:13.417Z,14592.00
2022-07-30T16:44:13.405Z,15744.00
2022-07-30T16:45:13.407Z,15360.00
2022-07-30T16:46:13.378Z,14248.00
2022-07-30T16:47:14.063Z,13528.00
2022-07-30T16:48:13.358Z,13424.00
2022-07-30T16:49:13.429Z,11336.00
2022-07-30T16:50:13.377Z,6052.00
2022-07-30T16:51:13.339Z,5756.00
2022-07-30T16:52:13.319Z,5532.00
2022-07-30T16:53:14.635Z,5336.00
2022-07-30T16:54:13.296Z,5212.00
2022-07-30T16:55:13.292Z,5212.00
2022-07-30T16:56:13.353Z,5208.00
2022-07-30T16:57:13.301Z,5172.00
2022-07-30T16:58:13.263Z,5088.00
2022-07-30T16:59:13.952Z,5092.00
2022-07-30T17:00:13.248Z,5608.00
2022-07-30T17:01:13.380Z,5320.00
2022-07-30T17:02:13.212Z,5128.00
2022-07-30T17:03:16.913Z,5068.00
2022-07-30T17:04:14.201Z,9416.00
2022-07-30T17:05:13.894Z,8084.00
2022-07-30T17:06:13.183Z,7292.00
2022-07-30T17:07:13.240Z,7608.00
2022-07-30T17:08:13.152Z,7492.00
2022-07-30T17:09:16.041Z,7240.00
2022-07-30T17:10:13.143Z,4620.00
2022-07-30T17:11:45.840Z,4636.00
2022-07-30T17:12:14.125Z,4784.00
2022-07-30T17:13:13.123Z,4844.00
2022-07-30T17:14:13.101Z,7084.00
2022-07-30T17:15:13.117Z,7180.00
2022-07-30T17:16:13.073Z,6812.00
2022-07-30T17:17:14.487Z,6232.00
2022-07-30T17:18:13.058Z,4548.00
2022-07-30T17:19:13.059Z,4416.00
2022-07-30T17:20:13.038Z,4332.00
2022-07-30T17:21:13.033Z,4236.00
2022-07-30T17:22:13.013Z,4172.00
2022-07-30T17:23:13.006Z,4112.00
2022-07-30T17:24:13.007Z,4000.00
2022-07-30T17:25:12.988Z,3916.00
2022-07-30T17:26:12.978Z,4036.00
2022-07-30T17:27:12.973Z,4224.00
2022-07-30T17:28:12.954Z,4364.00
2022-07-30T17:29:14.449Z,4320.00
2022-07-30T17:30:12.937Z,4148.00
2022-07-30T17:31:12.915Z,3840.00
2022-07-30T17:32:12.906Z,3496.00
2022-07-30T17:33:12.912Z,3296.00
2022-07-30T17:34:12.899Z,3772.00
2022-07-30T17:35:14.051Z,3832.00
2022-07-30T17:36:12.866Z,3144.00
2022-07-30T17:37:12.860Z,3088.00
2022-07-30T17:38:12.847Z,2964.00
2022-07-30T17:40:01.534Z,2860.00
2022-07-30T17:40:30.678Z,2732.00
2022-07-30T17:41:13.811Z,2668.00
2022-07-30T17:42:13.259Z,2644.00
2022-07-30T17:43:12.789Z,2620.00
2022-07-30T17:44:12.799Z,2584.00
2022-07-30T17:45:12.785Z,2572.00
2022-07-30T17:46:12.772Z,2496.00
2022-07-30T17:47:14.433Z,2324.00
2022-07-30T17:48:12.747Z,2240.00
2022-07-30T17:49:12.805Z,2196.00
2022-07-30T17:50:12.744Z,2076.00
2022-07-30T17:51:12.759Z,1972.00
2022-07-30T17:52:12.701Z,1892.00
2022-07-30T17:53:12.699Z,2124.00
2022-07-30T17:54:12.680Z,2184.00
2022-07-30T17:55:12.702Z,2144.00
2022-07-30T17:56:26.602Z,2032.00
2022-07-30T17:57:13.694Z,1912.00
2022-07-30T17:58:12.644Z,1868.00
2022-07-30T17:59:14.025Z,1888.00
2022-07-30T18:00:12.623Z,1792.00
2022-07-30T18:01:12.679Z,1624.00
2022-07-30T18:02:12.602Z,1536.00
2022-07-30T18:03:12.599Z,1528.00
2022-07-30T18:04:12.585Z,1512.00
2022-07-30T18:05:12.574Z,1496.00
2022-07-30T18:06:12.558Z,1512.00
2022-07-30T18:07:12.555Z,1552.00
2022-07-30T18:08:12.564Z,1624.00
2022-07-30T18:09:12.531Z,1720.00
2022-07-30T18:10:12.518Z,1808.00
2022-07-30T18:11:13.926Z,1884.00
2022-07-30T18:12:12.528Z,1976.00
2022-07-30T18:13:26.712Z,2088.00
2022-07-30T18:14:14.309Z,2140.00
2022-07-30T18:15:12.592Z,2132.00
2022-07-30T18:16:12.588Z,2104.00
2022-07-30T18:17:14.435Z,2100.00
2022-07-30T18:18:12.920Z,2144.00
2022-07-30T18:19:22.640Z,2216.00
2022-07-30T18:20:13.698Z,2220.00
2022-07-30T18:21:13.692Z,2188.00
2022-07-30T18:22:14.896Z,2152.00
2022-07-30T18:23:14.331Z,2092.00
2022-07-30T18:24:14.058Z,1988.00
2022-07-30T18:26:13.644Z,1888.00
2022-07-30T18:27:12.882Z,1864.00
2022-07-30T18:28:13.873Z,1828.00
2022-07-30T18:29:15.042Z,1768.00
2022-07-30T18:30:12.713Z,1708.00
2022-07-30T18:31:13.365Z,1644.00
2022-07-30T18:32:13.379Z,1544.00
2022-07-30T18:34:13.573Z,1324.00
2022-07-30T18:35:14.774Z,1240.00
2022-07-30T18:36:12.395Z,1164.00
2022-07-30T18:37:12.401Z,1104.00
2022-07-30T18:38:12.325Z,1044.00
2022-07-30T18:39:12.230Z,992.00
2022-07-30T18:40:12.223Z,944.00
2022-07-30T18:41:12.194Z,896.00
2022-07-30T18:42:12.186Z,852.00
2022-07-30T18:43:12.176Z,808.00
2022-07-30T18:44:12.161Z,768.00
2022-07-30T18:45:12.178Z,732.00
2022-07-30T18:46:12.136Z,696.00
2022-07-30T18:47:12.127Z,660.00
2022-07-30T18:48:12.113Z,632.00
2022-07-30T18:49:34.934Z,600.00
2022-07-30T18:50:13.214Z,572.00
2022-07-30T18:51:14.147Z,536.00
2022-07-30T18:52:12.079Z,504.00
2022-07-30T18:53:15.527Z,472.00
2022-07-30T18:54:12.061Z,444.00
2022-07-30T18:55:12.043Z,416.00
2022-07-30T18:56:12.157Z,392.00
2022-07-30T18:57:14.523Z,364.00
2022-07-30T18:58:12.030Z,340.00
2022-07-30T18:59:12.005Z,320.00
2022-07-30T19:00:31.112Z,296.00
2022-07-30T19:01:13.054Z,276.00
2022-07-30T19:02:11.970Z,256.00
2022-07-30T19:03:16.406Z,240.00
2022-07-30T19:04:12.956Z,220.00
2022-07-30T19:05:11.948Z,200.00
2022-07-30T19:06:11.924Z,184.00
2022-07-30T19:07:11.921Z,172.00
2022-07-30T19:08:11.929Z,156.00
2022-07-30T19:09:17.394Z,140.00
2022-07-30T19:10:12.931Z,128.00
2022-07-30T19:11:11.893Z,116.00
2022-07-30T19:12:11.870Z,104.00
2022-07-30T19:13:11.857Z,96.00
2022-07-30T19:14:11.846Z,88.00
2022-07-30T19:15:14.217Z,76.00
2022-07-30T19:16:11.848Z,68.00
2022-07-30T19:17:15.230Z,60.00
2022-07-30T19:18:11.829Z,56.00
2022-07-30T19:19:11.821Z,48.00
2022-07-30T19:20:11.786Z,44.00
2022-07-30T19:21:14.163Z,40.00
2022-07-30T19:22:11.756Z,32.00
2022-07-30T19:23:11.757Z,28.00
2022-07-30T19:24:11.748Z,24.00
2022-07-30T19:25:11.726Z,20.00
2022-07-30T19:26:11.737Z,20.00
2022-07-30T19:27:14.291Z,16.00
2022-07-30T19:28:11.706Z,12.00
2022-07-30T19:29:11.727Z,16.00
2022-07-30T19:30:11.682Z,12.00
2022-07-30T19:31:11.661Z,8.00
2022-07-30T19:32:11.652Z,8.00
2022-07-30T19:33:15.131Z,8.00
2022-07-30T19:34:11.646Z,8.00
2022-07-30T19:35:13.606Z,4.00
2022-07-30T19:36:11.625Z,4.00
2022-07-30T19:37:11.679Z,4.00
2022-07-30T19:38:14.305Z,4.00
2022-07-30T19:39:21.119Z,4.00
2022-07-30T19:40:12.839Z,0.00
2022-07-30T19:41:11.557Z,4.00
2022-07-30T19:42:11.566Z,4.00
2022-07-30T19:43:11.557Z,4.00
2022-07-30T19:44:11.537Z,0.00
2022-07-30T19:45:12.138Z,0.00